sensor_id;sensor_type;location;lat;lon;timestamp;P1;durP1;ratioP1;P2;durP2;ratioP2
48881;SDS011;57063;51.406;-2.402;2024-02-15T00:01:30;2.22;;;1.10;;
48881;SDS011;57063;51.406;-2.402;2024-02-15T00:03:56;3.65;;;1.30;;
48881;SDS011;57063;51.406;-2.402;2024-02-15T00:06:22;1.85;;;1.20;;
48881;SDS011;57063;51.406;-2.402;2024-02-15T00:08:48;7.88;;;1.52;;
48881;SDS011;57063;51.406;-2.402;2024-02-15T00:11:15;3.53;;;1.55;;
48881;SDS011;57063;51.406;-2.402;2024-02-15T00:13:40;3.47;;;1.67;;
48881;SDS011;57063;51.406;-2.402;2024-02-15T00:16:06;7.72;;;1.90;;
48881;SDS011;57063;51.406;-2.402;2024-02-15T00:18:31;5.03;;;2.28;;
48881;SDS011;57063;51.406;-2.402;2024-02-15T00:20:57;5.60;;;2.67;;
48881;SDS011;57063;51.406;-2.402;2024-02-15T00:23:23;5.90;;;2.50;;
48881;SDS011;57063;51.406;-2.402;2024-02-15T00:25:49;4.80;;;2.30;;
48881;SDS011;57063;51.406;-2.402;2024-02-15T00:28:15;6.35;;;2.95;;
48881;SDS011;57063;51.406;-2.402;2024-02-15T00:30:40;7.00;;;3.42;;
48881;SDS011;57063;51.406;-2.402;2024-02-15T00:33:07;6.90;;;3.10;;
48881;SDS011;57063;51.406;-2.402;2024-02-15T00:35:32;5.35;;;3.05;;
48881;SDS011;57063;51.406;-2.402;2024-02-15T00:37:58;9.90;;;3.67;;
48881;SDS011;57063;51.406;-2.402;2024-02-15T00:40:24;6.25;;;3.10;;
48881;SDS011;57063;51.406;-2.402;2024-02-15T00:42:49;6.05;;;3.10;;
48881;SDS011;57063;51.406;-2.402;2024-02-15T00:45:15;4.85;;;2.78;;
48881;SDS011;57063;51.406;-2.402;2024-02-15T00:47:41;5.35;;;2.67;;
48881;SDS011;57063;51.406;-2.402;2024-02-15T00:50:07;3.97;;;2.38;;
48881;SDS011;57063;51.406;-2.402;2024-02-15T00:52:33;5.07;;;2.60;;
48881;SDS011;57063;51.406;-2.402;2024-02-15T00:54:59;7.45;;;2.50;;
48881;SDS011;57063;51.406;-2.402;2024-02-15T00:57:25;4.30;;;2.17;;
48881;SDS011;57063;51.406;-2.402;2024-02-15T00:59:50;3.78;;;2.17;;
48881;SDS011;57063;51.406;-2.402;2024-02-15T01:02:17;3.85;;;2.38;;
48881;SDS011;57063;51.406;-2.402;2024-02-15T01:04:43;2.58;;;1.20;;
48881;SDS011;57063;51.406;-2.402;2024-02-15T01:07:10;3.22;;;1.95;;
48881;SDS011;57063;51.406;-2.402;2024-02-15T01:09:36;2.38;;;1.33;;
48881;SDS011;57063;51.406;-2.402;2024-02-15T01:12:01;1.45;;;1.10;;
48881;SDS011;57063;51.406;-2.402;2024-02-15T01:14:29;3.78;;;1.30;;
48881;SDS011;57063;51.406;-2.402;2024-02-15T01:16:55;3.45;;;1.70;;
48881;SDS011;57063;51.406;-2.402;2024-02-15T01:19:22;2.38;;;1.50;;
48881;SDS011;57063;51.406;-2.402;2024-02-15T01:21:47;1.80;;;1.25;;
48881;SDS011;57063;51.406;-2.402;2024-02-15T01:24:13;1.85;;;1.50;;
48881;SDS011;57063;51.406;-2.402;2024-02-15T01:26:39;3.13;;;1.30;;
48881;SDS011;57063;51.406;-2.402;2024-02-15T01:29:05;2.28;;;1.50;;
48881;SDS011;57063;51.406;-2.402;2024-02-15T01:31:31;3.78;;;1.30;;
48881;SDS011;57063;51.406;-2.402;2024-02-15T01:33:56;2.00;;;1.23;;
48881;SDS011;57063;51.406;-2.402;2024-02-15T01:36:22;2.53;;;1.20;;
48881;SDS011;57063;51.406;-2.402;2024-02-15T01:38:48;3.47;;;1.15;;
48881;SDS011;57063;51.406;-2.402;2024-02-15T01:41:15;2.15;;;1.33;;
48881;SDS011;57063;51.406;-2.402;2024-02-15T01:43:45;1.63;;;1.20;;
48881;SDS011;57063;51.406;-2.402;2024-02-15T01:46:11;2.50;;;1.58;;
48881;SDS011;57063;51.406;-2.402;2024-02-15T01:48:37;5.10;;;1.63;;
48881;SDS011;57063;51.406;-2.402;2024-02-15T01:51:06;2.83;;;2.42;;
48881;SDS011;57063;51.406;-2.402;2024-02-15T01:53:33;3.90;;;2.80;;
48881;SDS011;57063;51.406;-2.402;2024-02-15T01:55:59;3.20;;;2.90;;
48881;SDS011;57063;51.406;-2.402;2024-02-15T01:58:27;5.85;;;3.35;;
48881;SDS011;57063;51.406;-2.402;2024-02-15T02:00:57;4.78;;;2.83;;
48881;SDS011;57063;51.406;-2.402;2024-02-15T02:03:23;3.20;;;2.90;;
48881;SDS011;57063;51.406;-2.402;2024-02-15T02:05:49;4.43;;;2.97;;
48881;SDS011;57063;51.406;-2.402;2024-02-15T02:08:15;2.92;;;2.33;;
48881;SDS011;57063;51.406;-2.402;2024-02-15T02:10:41;3.83;;;2.70;;
48881;SDS011;57063;51.406;-2.402;2024-02-15T02:13:08;2.67;;;2.22;;
48881;SDS011;57063;51.406;-2.402;2024-02-15T02:15:34;2.90;;;2.33;;
48881;SDS011;57063;51.406;-2.402;2024-02-15T02:18:02;2.50;;;2.30;;
48881;SDS011;57063;51.406;-2.402;2024-02-15T02:20:33;2.13;;;1.90;;
48881;SDS011;57063;51.406;-2.402;2024-02-15T02:23:09;2.72;;;2.10;;
48881;SDS011;57063;51.406;-2.402;2024-02-15T02:25:39;2.30;;;2.00;;
48881;SDS011;57063;51.406;-2.402;2024-02-15T02:28:07;2.20;;;2.00;;
48881;SDS011;57063;51.406;-2.402;2024-02-15T02:30:34;2.50;;;2.30;;
48881;SDS011;57063;51.406;-2.402;2024-02-15T02:33:00;2.22;;;1.83;;
48881;SDS011;57063;51.406;-2.402;2024-02-15T02:35:26;2.20;;;2.00;;
48881;SDS011;57063;51.406;-2.402;2024-02-15T02:37:55;2.03;;;1.80;;
48881;SDS011;57063;51.406;-2.402;2024-02-15T02:40:21;2.45;;;2.22;;
48881;SDS011;57063;51.406;-2.402;2024-02-15T02:42:51;2.13;;;1.92;;
48881;SDS011;57063;51.406;-2.402;2024-02-15T02:45:18;5.35;;;3.17;;
48881;SDS011;57063;51.406;-2.402;2024-02-15T02:47:45;5.28;;;2.47;;
48881;SDS011;57063;51.406;-2.402;2024-02-15T02:50:12;4.43;;;4.03;;
48881;SDS011;57063;51.406;-2.402;2024-02-15T02:52:38;3.85;;;3.28;;
48881;SDS011;57063;51.406;-2.402;2024-02-15T02:55:05;5.05;;;4.30;;
48881;SDS011;57063;51.406;-2.402;2024-02-15T02:57:36;4.40;;;4.00;;
48881;SDS011;57063;51.406;-2.402;2024-02-15T03:00:03;6.25;;;5.57;;
48881;SDS011;57063;51.406;-2.402;2024-02-15T03:02:33;5.88;;;4.43;;
48881;SDS011;57063;51.406;-2.402;2024-02-15T03:05:01;3.25;;;2.95;;
48881;SDS011;57063;51.406;-2.402;2024-02-15T03:07:29;7.00;;;5.38;;
48881;SDS011;57063;51.406;-2.402;2024-02-15T03:09:57;6.18;;;5.57;;
48881;SDS011;57063;51.406;-2.402;2024-02-15T03:12:23;5.53;;;4.95;;
48881;SDS011;57063;51.406;-2.402;2024-02-15T03:14:49;4.28;;;3.88;;
48881;SDS011;57063;51.406;-2.402;2024-02-15T03:17:15;3.78;;;3.30;;
48881;SDS011;57063;51.406;-2.402;2024-02-15T03:19:41;5.20;;;4.70;;
48881;SDS011;57063;51.406;-2.402;2024-02-15T03:22:06;5.13;;;4.47;;
48881;SDS011;57063;51.406;-2.402;2024-02-15T03:24:32;9.73;;;4.70;;
48881;SDS011;57063;51.406;-2.402;2024-02-15T03:26:58;7.03;;;4.72;;
48881;SDS011;57063;51.406;-2.402;2024-02-15T03:29:23;6.03;;;4.15;;
48881;SDS011;57063;51.406;-2.402;2024-02-15T03:31:50;4.53;;;3.60;;
48881;SDS011;57063;51.406;-2.402;2024-02-15T03:34:18;4.05;;;3.42;;
48881;SDS011;57063;51.406;-2.402;2024-02-15T03:36:46;6.28;;;4.28;;
48881;SDS011;57063;51.406;-2.402;2024-02-15T03:39:16;5.95;;;4.35;;
48881;SDS011;57063;51.406;-2.402;2024-02-15T03:41:42;7.40;;;4.32;;
48881;SDS011;57063;51.406;-2.402;2024-02-15T03:44:10;6.75;;;4.72;;
48881;SDS011;57063;51.406;-2.402;2024-02-15T03:46:37;6.18;;;4.18;;
48881;SDS011;57063;51.406;-2.402;2024-02-15T03:49:02;5.57;;;4.80;;
48881;SDS011;57063;51.406;-2.402;2024-02-15T03:51:28;8.45;;;4.90;;
48881;SDS011;57063;51.406;-2.402;2024-02-15T03:53:54;7.28;;;4.60;;
48881;SDS011;57063;51.406;-2.402;2024-02-15T03:56:20;6.53;;;4.57;;
48881;SDS011;57063;51.406;-2.402;2024-02-15T03:58:48;7.85;;;4.70;;
48881;SDS011;57063;51.406;-2.402;2024-02-15T04:01:15;7.53;;;4.60;;
48881;SDS011;57063;51.406;-2.402;2024-02-15T04:03:41;11.85;;;4.88;;
48881;SDS011;57063;51.406;-2.402;2024-02-15T04:06:07;7.38;;;4.10;;
48881;SDS011;57063;51.406;-2.402;2024-02-15T04:08:32;12.63;;;5.30;;
48881;SDS011;57063;51.406;-2.402;2024-02-15T04:10:58;12.30;;;4.40;;
48881;SDS011;57063;51.406;-2.402;2024-02-15T04:13:24;7.38;;;4.30;;
48881;SDS011;57063;51.406;-2.402;2024-02-15T04:15:50;6.32;;;4.30;;
48881;SDS011;57063;51.406;-2.402;2024-02-15T04:18:18;8.70;;;4.60;;
48881;SDS011;57063;51.406;-2.402;2024-02-15T04:20:44;7.35;;;3.97;;
48881;SDS011;57063;51.406;-2.402;2024-02-15T04:23:11;7.20;;;3.55;;
48881;SDS011;57063;51.406;-2.402;2024-02-15T04:25:37;7.32;;;4.53;;
48881;SDS011;57063;51.406;-2.402;2024-02-15T04:28:04;7.18;;;4.82;;
48881;SDS011;57063;51.406;-2.402;2024-02-15T04:30:30;6.30;;;3.67;;
48881;SDS011;57063;51.406;-2.402;2024-02-15T04:32:56;5.88;;;3.85;;
48881;SDS011;57063;51.406;-2.402;2024-02-15T04:35:22;9.77;;;3.95;;
48881;SDS011;57063;51.406;-2.402;2024-02-15T04:37:47;10.80;;;3.60;;
48881;SDS011;57063;51.406;-2.402;2024-02-15T04:40:14;6.03;;;2.90;;
48881;SDS011;57063;51.406;-2.402;2024-02-15T04:42:39;7.32;;;3.13;;
48881;SDS011;57063;51.406;-2.402;2024-02-15T04:45:06;6.93;;;3.00;;
48881;SDS011;57063;51.406;-2.402;2024-02-15T04:47:38;7.25;;;3.53;;
48881;SDS011;57063;51.406;-2.402;2024-02-15T04:50:05;18.88;;;3.72;;
48881;SDS011;57063;51.406;-2.402;2024-02-15T04:52:31;8.48;;;3.72;;
48881;SDS011;57063;51.406;-2.402;2024-02-15T04:54:57;7.47;;;4.28;;
48881;SDS011;57063;51.406;-2.402;2024-02-15T04:57:25;14.88;;;5.47;;
48881;SDS011;57063;51.406;-2.402;2024-02-15T04:59:53;11.07;;;4.65;;
48881;SDS011;57063;51.406;-2.402;2024-02-15T05:02:19;11.75;;;4.20;;
48881;SDS011;57063;51.406;-2.402;2024-02-15T05:04:44;11.77;;;4.90;;
48881;SDS011;57063;51.406;-2.402;2024-02-15T05:07:10;9.38;;;4.00;;
48881;SDS011;57063;51.406;-2.402;2024-02-15T05:09:36;13.30;;;5.22;;
48881;SDS011;57063;51.406;-2.402;2024-02-15T05:12:01;15.73;;;6.32;;
48881;SDS011;57063;51.406;-2.402;2024-02-15T05:14:27;17.98;;;5.65;;
48881;SDS011;57063;51.406;-2.402;2024-02-15T05:16:55;13.23;;;5.60;;
48881;SDS011;57063;51.406;-2.402;2024-02-15T05:19:21;12.93;;;5.55;;
48881;SDS011;57063;51.406;-2.402;2024-02-15T05:21:46;14.50;;;6.50;;
48881;SDS011;57063;51.406;-2.402;2024-02-15T05:24:12;18.40;;;7.32;;
48881;SDS011;57063;51.406;-2.402;2024-02-15T05:26:39;25.05;;;7.85;;
48881;SDS011;57063;51.406;-2.402;2024-02-15T05:29:14;21.65;;;8.65;;
48881;SDS011;57063;51.406;-2.402;2024-02-15T05:31:40;25.08;;;7.00;;
48881;SDS011;57063;51.406;-2.402;2024-02-15T05:34:05;14.18;;;6.72;;
48881;SDS011;57063;51.406;-2.402;2024-02-15T05:36:36;20.80;;;8.17;;
48881;SDS011;57063;51.406;-2.402;2024-02-15T05:39:03;18.27;;;9.15;;
48881;SDS011;57063;51.406;-2.402;2024-02-15T05:41:29;22.00;;;9.93;;
48881;SDS011;57063;51.406;-2.402;2024-02-15T05:43:55;32.88;;;10.10;;
48881;SDS011;57063;51.406;-2.402;2024-02-15T05:46:22;28.73;;;10.65;;
48881;SDS011;57063;51.406;-2.402;2024-02-15T05:48:48;31.52;;;10.20;;
48881;SDS011;57063;51.406;-2.402;2024-02-15T05:51:14;20.55;;;8.85;;
48881;SDS011;57063;51.406;-2.402;2024-02-15T05:53:39;36.97;;;11.00;;
48881;SDS011;57063;51.406;-2.402;2024-02-15T05:56:06;29.80;;;11.57;;
48881;SDS011;57063;51.406;-2.402;2024-02-15T05:58:33;23.35;;;8.65;;
48881;SDS011;57063;51.406;-2.402;2024-02-15T06:01:00;24.35;;;10.50;;
48881;SDS011;57063;51.406;-2.402;2024-02-15T06:03:29;31.60;;;10.85;;
48881;SDS011;57063;51.406;-2.402;2024-02-15T06:06:02;30.98;;;10.82;;
48881;SDS011;57063;51.406;-2.402;2024-02-15T06:08:32;31.13;;;11.90;;
48881;SDS011;57063;51.406;-2.402;2024-02-15T06:10:58;30.75;;;11.98;;
48881;SDS011;57063;51.406;-2.402;2024-02-15T06:13:24;37.03;;;14.60;;
48881;SDS011;57063;51.406;-2.402;2024-02-15T06:15:51;33.78;;;11.98;;
48881;SDS011;57063;51.406;-2.402;2024-02-15T06:18:19;30.40;;;13.15;;
48881;SDS011;57063;51.406;-2.402;2024-02-15T06:20:50;43.15;;;12.90;;
48881;SDS011;57063;51.406;-2.402;2024-02-15T06:23:16;38.42;;;13.85;;
48881;SDS011;57063;51.406;-2.402;2024-02-15T06:25:42;47.20;;;14.15;;
48881;SDS011;57063;51.406;-2.402;2024-02-15T06:28:08;37.75;;;12.88;;
48881;SDS011;57063;51.406;-2.402;2024-02-15T06:30:57;33.33;;;14.05;;
48881;SDS011;57063;51.406;-2.402;2024-02-15T06:33:41;38.33;;;13.07;;
48881;SDS011;57063;51.406;-2.402;2024-02-15T06:36:26;36.67;;;12.85;;
48881;SDS011;57063;51.406;-2.402;2024-02-15T06:39:10;44.45;;;12.13;;
48881;SDS011;57063;51.406;-2.402;2024-02-15T06:41:54;46.33;;;12.07;;
48881;SDS011;57063;51.406;-2.402;2024-02-15T06:44:19;45.15;;;10.05;;
48881;SDS011;57063;51.406;-2.402;2024-02-15T06:46:44;37.38;;;10.50;;
48881;SDS011;57063;51.406;-2.402;2024-02-15T06:49:11;35.75;;;10.85;;
48881;SDS011;57063;51.406;-2.402;2024-02-15T06:51:36;29.95;;;8.15;;
48881;SDS011;57063;51.406;-2.402;2024-02-15T06:54:02;28.55;;;9.07;;
48881;SDS011;57063;51.406;-2.402;2024-02-15T06:56:28;23.05;;;7.47;;
48881;SDS011;57063;51.406;-2.402;2024-02-15T06:58:53;24.55;;;8.00;;
48881;SDS011;57063;51.406;-2.402;2024-02-15T07:01:19;26.35;;;6.57;;
48881;SDS011;57063;51.406;-2.402;2024-02-15T07:03:45;15.13;;;5.15;;
48881;SDS011;57063;51.406;-2.402;2024-02-15T07:06:10;20.25;;;5.32;;
48881;SDS011;57063;51.406;-2.402;2024-02-15T07:08:38;27.90;;;6.18;;
48881;SDS011;57063;51.406;-2.402;2024-02-15T07:11:04;31.25;;;6.82;;
48881;SDS011;57063;51.406;-2.402;2024-02-15T07:13:34;25.27;;;6.13;;
48881;SDS011;57063;51.406;-2.402;2024-02-15T07:16:01;20.15;;;7.30;;
48881;SDS011;57063;51.406;-2.402;2024-02-15T07:18:26;29.75;;;7.28;;
48881;SDS011;57063;51.406;-2.402;2024-02-15T07:20:52;27.92;;;6.53;;
48881;SDS011;57063;51.406;-2.402;2024-02-15T07:23:18;24.83;;;6.35;;
48881;SDS011;57063;51.406;-2.402;2024-02-15T07:25:43;21.85;;;6.28;;
48881;SDS011;57063;51.406;-2.402;2024-02-15T07:28:09;28.42;;;6.70;;
48881;SDS011;57063;51.406;-2.402;2024-02-15T07:30:34;24.42;;;5.85;;
48881;SDS011;57063;51.406;-2.402;2024-02-15T07:33:01;28.65;;;5.75;;
48881;SDS011;57063;51.406;-2.402;2024-02-15T07:35:27;20.85;;;5.80;;
48881;SDS011;57063;51.406;-2.402;2024-02-15T07:37:54;22.90;;;5.07;;
48881;SDS011;57063;51.406;-2.402;2024-02-15T07:40:25;25.83;;;8.07;;
48881;SDS011;57063;51.406;-2.402;2024-02-15T07:42:55;16.80;;;5.25;;
48881;SDS011;57063;51.406;-2.402;2024-02-15T07:45:22;22.60;;;6.13;;
48881;SDS011;57063;51.406;-2.402;2024-02-15T07:47:47;45.28;;;6.30;;
48881;SDS011;57063;51.406;-2.402;2024-02-15T07:50:17;17.75;;;5.32;;
48881;SDS011;57063;51.406;-2.402;2024-02-15T07:52:47;22.58;;;5.40;;
48881;SDS011;57063;51.406;-2.402;2024-02-15T07:55:13;14.98;;;5.78;;
48881;SDS011;57063;51.406;-2.402;2024-02-15T07:57:39;16.50;;;5.88;;
48881;SDS011;57063;51.406;-2.402;2024-02-15T08:00:04;22.05;;;6.25;;
48881;SDS011;57063;51.406;-2.402;2024-02-15T08:02:38;17.38;;;4.75;;
48881;SDS011;57063;51.406;-2.402;2024-02-15T08:05:07;19.83;;;5.15;;
48881;SDS011;57063;51.406;-2.402;2024-02-15T08:07:36;17.88;;;5.03;;
48881;SDS011;57063;51.406;-2.402;2024-02-15T08:10:12;12.27;;;4.10;;
48881;SDS011;57063;51.406;-2.402;2024-02-15T08:12:41;17.45;;;3.95;;
48881;SDS011;57063;51.406;-2.402;2024-02-15T08:15:10;12.68;;;3.88;;
48881;SDS011;57063;51.406;-2.402;2024-02-15T08:17:40;12.20;;;3.65;;
48881;SDS011;57063;51.406;-2.402;2024-02-15T08:20:10;12.48;;;3.17;;
48881;SDS011;57063;51.406;-2.402;2024-02-15T08:22:36;11.50;;;3.92;;
48881;SDS011;57063;51.406;-2.402;2024-02-15T08:25:09;17.38;;;3.72;;
48881;SDS011;57063;51.406;-2.402;2024-02-15T08:27:39;15.57;;;4.13;;
48881;SDS011;57063;51.406;-2.402;2024-02-15T08:30:08;14.68;;;3.22;;
48881;SDS011;57063;51.406;-2.402;2024-02-15T08:32:36;16.83;;;3.70;;
48881;SDS011;57063;51.406;-2.402;2024-02-15T08:35:05;14.05;;;3.88;;
48881;SDS011;57063;51.406;-2.402;2024-02-15T08:37:32;12.15;;;3.15;;
48881;SDS011;57063;51.406;-2.402;2024-02-15T08:40:00;18.42;;;3.65;;
48881;SDS011;57063;51.406;-2.402;2024-02-15T08:42:25;16.60;;;3.75;;
48881;SDS011;57063;51.406;-2.402;2024-02-15T08:44:51;17.95;;;3.25;;
48881;SDS011;57063;51.406;-2.402;2024-02-15T08:47:17;17.95;;;3.67;;
48881;SDS011;57063;51.406;-2.402;2024-02-15T08:49:42;17.38;;;3.75;;
48881;SDS011;57063;51.406;-2.402;2024-02-15T08:52:08;11.75;;;2.78;;
48881;SDS011;57063;51.406;-2.402;2024-02-15T08:54:33;13.98;;;3.17;;
48881;SDS011;57063;51.406;-2.402;2024-02-15T08:56:59;15.25;;;3.28;;
48881;SDS011;57063;51.406;-2.402;2024-02-15T08:59:26;11.23;;;3.42;;
48881;SDS011;57063;51.406;-2.402;2024-02-15T09:01:53;18.60;;;3.03;;
48881;SDS011;57063;51.406;-2.402;2024-02-15T09:04:21;11.48;;;2.83;;
48881;SDS011;57063;51.406;-2.402;2024-02-15T09:06:48;9.40;;;2.40;;
48881;SDS011;57063;51.406;-2.402;2024-02-15T09:09:13;9.55;;;2.70;;
48881;SDS011;57063;51.406;-2.402;2024-02-15T09:11:39;10.55;;;2.30;;
48881;SDS011;57063;51.406;-2.402;2024-02-15T09:14:04;17.00;;;2.85;;
48881;SDS011;57063;51.406;-2.402;2024-02-15T09:16:30;10.38;;;3.13;;
48881;SDS011;57063;51.406;-2.402;2024-02-15T09:18:56;11.55;;;3.13;;
48881;SDS011;57063;51.406;-2.402;2024-02-15T09:21:25;10.98;;;3.50;;
48881;SDS011;57063;51.406;-2.402;2024-02-15T09:23:53;13.07;;;2.90;;
48881;SDS011;57063;51.406;-2.402;2024-02-15T09:26:19;11.88;;;2.85;;
48881;SDS011;57063;51.406;-2.402;2024-02-15T09:28:44;11.77;;;3.33;;
48881;SDS011;57063;51.406;-2.402;2024-02-15T09:31:12;15.50;;;3.05;;
48881;SDS011;57063;51.406;-2.402;2024-02-15T09:33:38;16.55;;;3.10;;
48881;SDS011;57063;51.406;-2.402;2024-02-15T09:36:04;13.90;;;2.90;;
48881;SDS011;57063;51.406;-2.402;2024-02-15T09:38:30;10.20;;;2.80;;
48881;SDS011;57063;51.406;-2.402;2024-02-15T09:40:56;8.30;;;2.75;;
48881;SDS011;57063;51.406;-2.402;2024-02-15T09:43:25;13.50;;;2.72;;
48881;SDS011;57063;51.406;-2.402;2024-02-15T09:45:51;9.55;;;2.65;;
48881;SDS011;57063;51.406;-2.402;2024-02-15T09:48:21;12.05;;;3.65;;
48881;SDS011;57063;51.406;-2.402;2024-02-15T09:50:50;11.75;;;2.92;;
48881;SDS011;57063;51.406;-2.402;2024-02-15T09:53:21;9.98;;;2.47;;
48881;SDS011;57063;51.406;-2.402;2024-02-15T09:55:53;13.30;;;2.85;;
48881;SDS011;57063;51.406;-2.402;2024-02-15T09:58:19;10.40;;;2.55;;
48881;SDS011;57063;51.406;-2.402;2024-02-15T10:00:48;10.02;;;2.53;;
48881;SDS011;57063;51.406;-2.402;2024-02-15T10:03:16;11.60;;;2.70;;
48881;SDS011;57063;51.406;-2.402;2024-02-15T10:05:48;6.47;;;2.78;;
48881;SDS011;57063;51.406;-2.402;2024-02-15T10:08:24;33.88;;;6.80;;
48881;SDS011;57063;51.406;-2.402;2024-02-15T10:11:23;22.17;;;3.55;;
48881;SDS011;57063;51.406;-2.402;2024-02-15T10:13:47;13.43;;;2.53;;
48881;SDS011;57063;51.406;-2.402;2024-02-15T10:16:20;18.70;;;3.28;;
48881;SDS011;57063;51.406;-2.402;2024-02-15T10:18:50;13.13;;;2.72;;
48881;SDS011;57063;51.406;-2.402;2024-02-15T10:21:26;5.22;;;2.00;;
48881;SDS011;57063;51.406;-2.402;2024-02-15T10:24:07;10.35;;;2.17;;
48881;SDS011;57063;51.406;-2.402;2024-02-15T10:26:36;12.48;;;2.70;;
48881;SDS011;57063;51.406;-2.402;2024-02-15T10:29:16;18.60;;;2.60;;
48881;SDS011;57063;51.406;-2.402;2024-02-15T10:31:55;9.15;;;2.58;;
48881;SDS011;57063;51.406;-2.402;2024-02-15T10:34:32;11.13;;;2.65;;
48881;SDS011;57063;51.406;-2.402;2024-02-15T10:37:11;5.55;;;2.03;;
48881;SDS011;57063;51.406;-2.402;2024-02-15T10:39:46;9.38;;;2.20;;
48881;SDS011;57063;51.406;-2.402;2024-02-15T10:42:46;6.78;;;2.13;;
48881;SDS011;57063;51.406;-2.402;2024-02-15T10:45:44;10.52;;;2.58;;
48881;SDS011;57063;51.406;-2.402;2024-02-15T10:48:18;6.45;;;1.95;;
48881;SDS011;57063;51.406;-2.402;2024-02-15T13:21:05;8.55;;;2.10;;
48881;SDS011;57063;51.406;-2.402;2024-02-15T13:23:35;11.80;;;2.83;;
48881;SDS011;57063;51.406;-2.402;2024-02-15T13:26:00;5.68;;;2.42;;
48881;SDS011;57063;51.406;-2.402;2024-02-15T13:28:29;16.38;;;2.63;;
48881;SDS011;57063;51.406;-2.402;2024-02-15T13:30:58;8.25;;;2.92;;
48881;SDS011;57063;51.406;-2.402;2024-02-15T13:33:53;14.48;;;2.80;;
48881;SDS011;57063;51.406;-2.402;2024-02-15T13:36:42;12.60;;;3.50;;
48881;SDS011;57063;51.406;-2.402;2024-02-15T13:39:09;12.25;;;3.38;;
48881;SDS011;57063;51.406;-2.402;2024-02-15T13:41:40;7.45;;;2.47;;
48881;SDS011;57063;51.406;-2.402;2024-02-15T13:44:29;6.30;;;2.00;;
48881;SDS011;57063;51.406;-2.402;2024-02-15T15:56:19;12.88;;;4.10;;
48881;SDS011;57063;51.406;-2.402;2024-02-15T15:58:45;17.75;;;4.32;;
48881;SDS011;57063;51.406;-2.402;2024-02-15T16:01:12;15.73;;;3.72;;
48881;SDS011;57063;51.406;-2.402;2024-02-15T16:03:38;19.15;;;3.97;;
48881;SDS011;57063;51.406;-2.402;2024-02-15T16:06:04;11.85;;;4.20;;
48881;SDS011;57063;51.406;-2.402;2024-02-15T16:08:30;16.02;;;4.68;;
48881;SDS011;57063;51.406;-2.402;2024-02-15T16:10:56;21.65;;;3.65;;
48881;SDS011;57063;51.406;-2.402;2024-02-15T16:13:22;14.65;;;4.15;;
48881;SDS011;57063;51.406;-2.402;2024-02-15T16:15:52;18.42;;;5.28;;
48881;SDS011;57063;51.406;-2.402;2024-02-15T16:18:19;10.60;;;5.03;;
48881;SDS011;57063;51.406;-2.402;2024-02-15T16:20:46;14.18;;;4.25;;
48881;SDS011;57063;51.406;-2.402;2024-02-15T16:23:12;12.95;;;5.28;;
48881;SDS011;57063;51.406;-2.402;2024-02-15T16:25:38;14.75;;;5.25;;
48881;SDS011;57063;51.406;-2.402;2024-02-15T16:28:03;12.38;;;4.00;;
48881;SDS011;57063;51.406;-2.402;2024-02-15T16:30:31;17.55;;;4.80;;
48881;SDS011;57063;51.406;-2.402;2024-02-15T16:32:58;24.48;;;6.72;;
48881;SDS011;57063;51.406;-2.402;2024-02-15T16:35:23;13.13;;;4.22;;
48881;SDS011;57063;51.406;-2.402;2024-02-15T16:37:49;25.92;;;6.13;;
48881;SDS011;57063;51.406;-2.402;2024-02-15T16:40:14;17.95;;;5.07;;
48881;SDS011;57063;51.406;-2.402;2024-02-15T16:42:42;16.80;;;4.60;;
48881;SDS011;57063;51.406;-2.402;2024-02-15T16:45:12;15.45;;;5.68;;
48881;SDS011;57063;51.406;-2.402;2024-02-15T16:47:38;17.27;;;5.57;;
48881;SDS011;57063;51.406;-2.402;2024-02-15T16:50:05;25.58;;;7.40;;
48881;SDS011;57063;51.406;-2.402;2024-02-15T16:52:33;18.52;;;6.57;;
48881;SDS011;57063;51.406;-2.402;2024-02-15T16:55:05;17.75;;;5.55;;
48881;SDS011;57063;51.406;-2.402;2024-02-15T16:57:40;27.00;;;6.53;;
48881;SDS011;57063;51.406;-2.402;2024-02-15T17:00:06;25.27;;;7.32;;
48881;SDS011;57063;51.406;-2.402;2024-02-15T17:02:33;20.00;;;6.55;;
48881;SDS011;57063;51.406;-2.402;2024-02-15T17:04:59;17.02;;;6.45;;
48881;SDS011;57063;51.406;-2.402;2024-02-15T17:07:25;13.80;;;6.85;;
48881;SDS011;57063;51.406;-2.402;2024-02-15T17:09:51;30.60;;;9.15;;
48881;SDS011;57063;51.406;-2.402;2024-02-15T17:12:17;26.77;;;8.10;;
48881;SDS011;57063;51.406;-2.402;2024-02-15T17:14:43;23.83;;;8.57;;
48881;SDS011;57063;51.406;-2.402;2024-02-15T17:17:08;22.67;;;8.45;;
48881;SDS011;57063;51.406;-2.402;2024-02-15T17:19:34;18.92;;;8.35;;
48881;SDS011;57063;51.406;-2.402;2024-02-15T17:21:59;20.15;;;7.97;;
48881;SDS011;57063;51.406;-2.402;2024-02-15T17:24:26;25.52;;;8.35;;
48881;SDS011;57063;51.406;-2.402;2024-02-15T17:26:52;17.63;;;7.57;;
48881;SDS011;57063;51.406;-2.402;2024-02-15T17:29:17;13.57;;;6.57;;
48881;SDS011;57063;51.406;-2.402;2024-02-15T17:31:43;18.45;;;8.63;;
48881;SDS011;57063;51.406;-2.402;2024-02-15T17:34:08;17.60;;;7.57;;
48881;SDS011;57063;51.406;-2.402;2024-02-15T17:36:39;25.15;;;8.38;;
48881;SDS011;57063;51.406;-2.402;2024-02-15T17:39:05;16.27;;;7.95;;
48881;SDS011;57063;51.406;-2.402;2024-02-15T17:41:35;21.63;;;8.25;;
48881;SDS011;57063;51.406;-2.402;2024-02-15T17:44:03;20.00;;;8.13;;
48881;SDS011;57063;51.406;-2.402;2024-02-15T17:46:29;21.70;;;9.32;;
48881;SDS011;57063;51.406;-2.402;2024-02-15T17:48:59;16.63;;;9.95;;
48881;SDS011;57063;51.406;-2.402;2024-02-15T17:51:25;28.90;;;9.73;;
48881;SDS011;57063;51.406;-2.402;2024-02-15T17:53:51;23.48;;;13.52;;
48881;SDS011;57063;51.406;-2.402;2024-02-15T17:56:18;24.98;;;13.10;;
48881;SDS011;57063;51.406;-2.402;2024-02-15T17:58:43;23.30;;;11.57;;
48881;SDS011;57063;51.406;-2.402;2024-02-15T18:01:09;25.25;;;12.55;;
48881;SDS011;57063;51.406;-2.402;2024-02-15T18:03:36;19.65;;;11.07;;
48881;SDS011;57063;51.406;-2.402;2024-02-15T18:06:01;18.15;;;10.30;;
48881;SDS011;57063;51.406;-2.402;2024-02-15T18:08:27;15.07;;;8.85;;
48881;SDS011;57063;51.406;-2.402;2024-02-15T18:10:53;20.02;;;9.50;;
48881;SDS011;57063;51.406;-2.402;2024-02-15T18:13:25;12.65;;;7.60;;
48881;SDS011;57063;51.406;-2.402;2024-02-15T18:15:54;13.75;;;7.93;;
48881;SDS011;57063;51.406;-2.402;2024-02-15T18:18:20;17.30;;;8.52;;
48881;SDS011;57063;51.406;-2.402;2024-02-15T18:20:47;12.68;;;8.38;;
48881;SDS011;57063;51.406;-2.402;2024-02-15T18:23:14;17.63;;;7.78;;
48881;SDS011;57063;51.406;-2.402;2024-02-15T18:25:39;12.85;;;8.40;;
48881;SDS011;57063;51.406;-2.402;2024-02-15T18:28:05;16.83;;;9.07;;
48881;SDS011;57063;51.406;-2.402;2024-02-15T18:30:31;14.77;;;8.30;;
48881;SDS011;57063;51.406;-2.402;2024-02-15T18:32:59;17.20;;;9.30;;
48881;SDS011;57063;51.406;-2.402;2024-02-15T18:35:25;11.13;;;7.00;;
48881;SDS011;57063;51.406;-2.402;2024-02-15T18:37:51;11.65;;;7.95;;
48881;SDS011;57063;51.406;-2.402;2024-02-15T18:40:17;12.43;;;7.28;;
48881;SDS011;57063;51.406;-2.402;2024-02-15T18:42:42;11.55;;;6.63;;
48881;SDS011;57063;51.406;-2.402;2024-02-15T18:45:09;9.13;;;6.82;;
48881;SDS011;57063;51.406;-2.402;2024-02-15T18:47:34;12.10;;;7.00;;
48881;SDS011;57063;51.406;-2.402;2024-02-15T18:50:02;10.57;;;6.72;;
48881;SDS011;57063;51.406;-2.402;2024-02-15T18:52:28;13.35;;;7.25;;
48881;SDS011;57063;51.406;-2.402;2024-02-15T18:54:55;9.35;;;5.93;;
48881;SDS011;57063;51.406;-2.402;2024-02-15T18:57:24;7.47;;;5.50;;
48881;SDS011;57063;51.406;-2.402;2024-02-15T18:59:50;12.15;;;5.85;;
48881;SDS011;57063;51.406;-2.402;2024-02-15T19:02:16;8.73;;;5.85;;
48881;SDS011;57063;51.406;-2.402;2024-02-15T19:04:44;9.05;;;5.50;;
48881;SDS011;57063;51.406;-2.402;2024-02-15T19:07:11;9.75;;;6.07;;
48881;SDS011;57063;51.406;-2.402;2024-02-15T19:09:37;10.85;;;6.75;;